Time;durP1;ratioP1;P1;durP2;ratioP2;P2;SDS_P1;SDS_P2;PMS_P1;PMS_P2;Temp;Humidity;BMP_temperature;BMP_pressure;BME280_temperature;BME280_humidity;BME280_pressure;Samples;Min_cycle;Max_cycle;Signal;HPM_P1;HPM_P2
2021/09/17 00:00:08;;;;;;;3.58;3.28;;;;;;;16.95;71.42;99464.06;256202;1104;114955;-72
2021/09/17 00:05:31;;;;;;;3.65;3.05;;;;;;;16.89;71.27;99462.49;254612;1096;115126;-75
2021/09/17 00:10:35;;;;;;;3.63;3.33;;;;;;;16.85;71.39;99458.75;254734;1102;117561;-76
2021/09/17 00:15:38;;;;;;;4.23;3.45;;;;;;;16.84;71.30;99457.95;255370;1103;115505;-76
2021/09/17 00:20:41;;;;;;;3.00;2.80;;;;;;;16.79;71.60;99451.83;255781;1096;115238;-75
2021/09/17 00:25:44;;;;;;;3.03;2.83;;;;;;;16.70;71.76;99456.20;255285;1104;114751;-74
2021/09/17 00:30:47;;;;;;;4.18;3.08;;;;;;;16.54;71.49;99447.41;254191;1104;115182;-72
2021/09/17 00:35:51;;;;;;;5.40;3.03;;;;;;;16.36;72.24;99440.81;254779;1096;115525;-71
2021/09/17 00:40:54;;;;;;;4.67;2.77;;;;;;;16.28;72.38;99432.53;254324;1104;115594;-72
2021/09/17 00:45:58;;;;;;;6.05;3.10;;;;;;;16.17;72.63;99437.19;254412;1104;114693;-72
2021/09/17 00:51:02;;;;;;;5.33;3.45;;;;;;;16.05;73.35;99423.27;254190;1104;116738;-74
2021/09/17 00:56:05;;;;;;;5.05;3.75;;;;;;;16.02;73.41;99426.51;254742;1103;115277;-72
2021/09/17 01:01:09;;;;;;;4.00;3.60;;;;;;;15.97;73.59;99423.84;256060;1096;118622;-74
2021/09/17 01:06:13;;;;;;;5.10;3.58;;;;;;;15.91;73.92;99424.95;255098;1104;114922;-71
2021/09/17 01:11:17;;;;;;;5.57;3.40;;;;;;;15.91;73.97;99420.38;254348;1104;115154;-73
2021/09/17 01:16:20;;;;;;;6.38;3.38;;;;;;;15.87;73.99;99418.55;254994;1102;116095;-71
2021/09/17 01:21:23;;;;;;;3.60;3.40;;;;;;;15.76;74.32;99415.90;254403;1104;115801;-71
2021/09/17 01:26:26;;;;;;;3.28;2.98;;;;;;;15.65;74.46;99408.95;254477;1104;117726;-72
2021/09/17 01:31:30;;;;;;;6.65;4.30;;;;;;;15.52;74.43;99406.05;254299;1104;115329;-73
2021/09/17 01:36:33;;;;;;;3.50;3.20;;;;;;;15.52;74.68;99408.73;255663;1104;216819;-72
2021/09/17 01:41:37;;;;;;;5.00;3.93;;;;;;;15.53;75.13;99404.97;257266;1103;114455;-72
2021/09/17 01:46:40;;;;;;;4.27;3.57;;;;;;;15.59;75.03;99398.53;255946;1102;115310;-71
2021/09/17 01:51:43;;;;;;;6.40;3.80;;;;;;;15.68;75.06;99388.79;254122;1104;115543;-71
2021/09/17 01:56:46;;;;;;;6.10;4.33;;;;;;;15.69;75.32;99388.52;255184;1104;115939;-71
2021/09/17 02:01:50;;;;;;;4.43;4.03;;;;;;;15.67;74.96;99379.13;254373;1104;115812;-71
2021/09/17 02:06:53;;;;;;;9.38;4.45;;;;;;;15.61;75.26;99375.66;255134;1104;115751;-71
2021/09/17 02:11:56;;;;;;;3.90;3.47;;;;;;;15.65;75.13;99374.02;254567;1102;116114;-71
2021/09/17 02:16:59;;;;;;;4.60;4.23;;;;;;;15.64;75.30;99371.61;254223;1104;114503;-72
2021/09/17 02:22:01;;;;;;;4.70;3.93;;;;;;;15.63;75.25;99370.80;254224;1103;115068;-72
2021/09/17 02:27:04;;;;;;;5.10;3.80;;;;;;;15.58;75.30;99373.55;254267;1102;115432;-72
2021/09/17 02:32:09;;;;;;;7.13;3.48;;;;;;;15.62;75.45;99363.83;254504;1104;115934;-71
2021/09/17 02:37:13;;;;;;;4.55;4.15;;;;;;;15.62;75.13;99358.45;254668;1104;115305;-71
2021/09/17 02:42:16;;;;;;;5.03;4.60;;;;;;;15.65;75.18;99357.09;254323;1104;115688;-73
2021/09/17 02:47:19;;;;;;;5.75;3.85;;;;;;;15.64;75.02;99361.66;254137;1104;115850;-73
2021/09/17 02:52:23;;;;;;;3.93;3.58;;;;;;;15.60;74.96;99349.86;255499;1104;115693;-72
2021/09/17 02:57:26;;;;;;;3.90;3.50;;;;;;;15.61;75.10;99347.98;255375;1104;115046;-71
2021/09/17 03:02:29;;;;;;;4.60;3.17;;;;;;;15.61;74.98;99348.78;254145;1104;115834;-70
2021/09/17 03:07:32;;;;;;;3.48;3.18;;;;;;;15.58;75.18;99349.36;254626;1102;115822;-72
2021/09/17 03:12:35;;;;;;;7.45;3.85;;;;;;;15.53;74.55;99340.49;254887;1104;116134;-73
2021/09/17 03:17:39;;;;;;;4.78;3.43;;;;;;;15.47;74.62;99345.08;254830;1096;115756;-72
2021/09/17 03:22:43;;;;;;;5.57;3.40;;;;;;;15.40;74.46;99341.88;254229;1102;115536;-71
2021/09/17 03:27:45;;;;;;;3.68;3.38;;;;;;;15.39;74.86;99345.65;254783;1104;115662;-72
2021/09/17 03:32:49;;;;;;;3.00;2.80;;;;;;;15.31;74.60;99335.47;254273;1100;116122;-70
2021/09/17 03:37:56;;;;;;;3.15;2.90;;;;;;;15.20;74.58;99337.41;257108;1103;115207;-70
2021/09/17 03:42:59;;;;;;;6.38;3.25;;;;;;;15.13;74.38;99332.33;256904;1103;114581;-71
2021/09/17 03:48:06;;;;;;;4.28;3.88;;;;;;;15.09;74.71;99333.95;257069;1103;116419;-71
2021/09/17 03:53:09;;;;;;;8.98;3.63;;;;;;;15.12;75.03;99330.72;255702;1103;116024;-72
2021/09/17 03:58:12;;;;;;;9.33;4.03;;;;;;;15.06;74.76;99331.81;256007;1102;115150;-72
2021/09/17 04:03:15;;;;;;;4.60;3.43;;;;;;;15.03;74.24;99332.36;255942;1096;193614;-71
2021/09/17 04:08:18;;;;;;;8.35;3.83;;;;;;;14.95;74.36;99335.63;255334;1104;115093;-71
2021/09/17 04:13:21;;;;;;;3.08;2.85;;;;;;;14.90;74.45;99332.95;255714;1103;115083;-70
2021/09/17 04:18:25;;;;;;;4.43;4.10;;;;;;;14.83;75.07;99332.42;254560;1103;115716;-70
2021/09/17 04:23:28;;;;;;;3.83;3.53;;;;;;;14.81;75.12;99334.58;254925;1104;115464;-72
2021/09/17 04:28:32;;;;;;;7.60;4.30;;;;;;;14.79;74.84;99329.48;254468;1104;115569;-74
2021/09/17 04:33:36;;;;;;;7.50;4.63;;;;;;;14.75;75.22;99332.97;255042;1104;115577;-74
2021/09/17 04:38:39;;;;;;;4.10;3.80;;;;;;;14.71;75.35;99340.75;254255;1103;116641;-71
2021/09/17 04:43:42;;;;;;;6.10;3.88;;;;;;;14.66;75.66;99348.03;254954;1098;115968;-74
2021/09/17 04:48:46;;;;;;;7.15;4.68;;;;;;;14.63;75.36;99341.33;254190;1098;115637;-74
2021/09/17 04:53:52;;;;;;;5.88;4.13;;;;;;;14.63;75.29;99333.28;254557;1104;116208;-73
2021/09/17 04:58:56;;;;;;;6.48;4.95;;;;;;;14.64;75.22;99350.98;254329;1099;116013;-75
2021/09/17 05:04:00;;;;;;;6.77;5.30;;;;;;;14.63;75.30;99343.20;254417;1104;115297;-75
2021/09/17 05:09:03;;;;;;;5.65;4.83;;;;;;;14.53;75.40;99343.20;254291;1102;115762;-75
2021/09/17 05:14:06;;;;;;;5.45;4.68;;;;;;;14.49;75.72;99342.94;255276;1104;115606;-73
2021/09/17 05:19:10;;;;;;;12.05;4.98;;;;;;;14.54;75.46;99344.81;254814;1104;115376;-73
2021/09/17 05:24:13;;;;;;;5.18;4.75;;;;;;;14.63;75.51;99348.56;256156;1103;115618;-75
2021/09/17 05:29:17;;;;;;;6.05;5.15;;;;;;;14.67;75.71;99339.72;255676;1104;115429;-72
2021/09/17 05:34:21;;;;;;;7.20;6.00;;;;;;;14.69;75.76;99342.91;256848;1102;115129;-72
2021/09/17 05:39:24;;;;;;;5.47;4.97;;;;;;;14.69;75.34;99347.46;256197;1103;114763;-71
2021/09/17 05:44:27;;;;;;;7.25;6.00;;;;;;;14.67;75.02;99333.55;256873;1103;114952;-72
2021/09/17 05:49:31;;;;;;;6.50;5.85;;;;;;;14.74;75.36;99339.41;255439;1103;115141;-71
2021/09/17 05:54:37;;;;;;;7.38;5.50;;;;;;;14.82;75.62;99336.98;254429;1096;115517;-71
2021/09/17 05:59:41;;;;;;;5.98;5.40;;;;;;;14.88;75.96;99336.98;254988;1103;115619;-75
2021/09/17 06:04:46;;;;;;;8.05;6.90;;;;;;;15.03;76.17;99328.86;254237;1104;115966;-73
2021/09/17 06:09:49;;;;;;;8.20;6.47;;;;;;;15.22;75.95;99334.45;254366;1104;116264;-75
2021/09/17 06:14:56;;;;;;;9.75;5.93;;;;;;;15.48;75.74;99322.52;254325;1104;115708;-74
2021/09/17 06:20:00;;;;;;;6.33;5.38;;;;;;;15.75;75.65;99317.55;254439;1104;115100;-74
2021/09/17 06:25:04;;;;;;;8.40;6.35;;;;;;;15.85;75.32;99315.88;255046;1102;116149;-74
2021/09/17 06:30:07;;;;;;;8.05;6.00;;;;;;;15.95;75.34;99326.55;254217;1104;116454;-74
2021/09/17 06:35:12;;;;;;;7.43;6.88;;;;;;;16.06;75.32;99326.20;254979;1102;117505;-75
2021/09/17 06:40:18;;;;;;;9.00;6.05;;;;;;;16.18;75.46;99336.61;254208;1102;115285;-75
2021/09/17 06:45:21;;;;;;;13.33;6.07;;;;;;;16.16;75.23;99336.09;254315;1103;115911;-75
2021/09/17 06:50:27;;;;;;;5.98;5.38;;;;;;;16.15;74.62;99332.59;254427;1104;115856;-74
2021/09/17 06:55:31;;;;;;;12.38;6.53;;;;;;;16.14;74.84;99317.54;254826;1103;115401;-73
2021/09/17 07:00:38;;;;;;;8.08;6.15;;;;;;;16.14;74.24;99311.36;254278;1103;115662;-72
2021/09/17 07:05:42;;;;;;;5.80;5.20;;;;;;;16.74;74.73;99315.41;255378;1104;115300;-69
2021/09/17 07:10:46;;;;;;;5.95;4.85;;;;;;;17.29;73.90;99317.73;254711;1102;115485;-72
2021/09/17 07:15:50;;;;;;;8.33;5.58;;;;;;;17.65;73.46;99305.42;255295;1103;115500;-71
2021/09/17 07:20:54;;;;;;;9.00;6.43;;;;;;;18.08;73.53;99308.80;256041;1103;115309;-70
2021/09/17 07:25:57;;;;;;;7.60;5.27;;;;;;;18.38;72.48;99303.98;256138;1104;114735;-71
2021/09/17 07:31:01;;;;;;;7.85;5.90;;;;;;;18.56;72.34;99308.53;254186;1102;114939;-69
2021/09/17 07:36:05;;;;;;;8.75;5.43;;;;;;;18.72;72.07;99312.58;255570;1103;115790;-67
2021/09/17 07:41:07;;;;;;;8.13;5.50;;;;;;;18.76;71.60;99312.78;257021;1103;115032;-69
2021/09/17 07:46:15;;;;;;;6.13;5.63;;;;;;;18.83;71.78;99313.20;257088;1103;115167;-70
2021/09/17 07:51:18;;;;;;;9.58;5.23;;;;;;;18.89;71.22;99317.41;257130;1104;115257;-70
2021/09/17 07:56:21;;;;;;;7.17;6.57;;;;;;;18.92;71.49;99322.21;256298;1096;115818;-70
2021/09/17 08:01:24;;;;;;;5.87;5.47;;;;;;;18.96;71.22;99312.38;256492;1103;115173;-71
2021/09/17 08:06:28;;;;;;;6.88;5.95;;;;;;;18.93;70.77;99312.21;256240;1104;115779;-70
2021/09/17 08:11:31;;;;;;;7.43;6.78;;;;;;;19.11;70.83;99309.39;254702;1103;115260;-67
2021/09/17 08:16:34;;;;;;;6.55;5.15;;;;;;;19.22;70.54;99312.70;255782;1102;115513;-68
2021/09/17 08:21:41;;;;;;;11.33;5.95;;;;;;;19.15;70.43;99310.39;254702;1103;114783;-69
2021/09/17 08:26:51;;;;;;;11.93;6.20;;;;;;;19.27;70.25;99320.67;254749;1102;115928;-69
2021/09/17 08:31:56;;;;;;;14.15;6.73;;;;;;;19.29;70.23;99314.97;254314;1103;115434;-69
2021/09/17 08:37:03;;;;;;;7.23;6.63;;;;;;;19.19;70.07;99321.41;254578;1103;115363;-69
2021/09/17 08:42:09;;;;;;;8.38;6.10;;;;;;;19.16;69.93;99313.90;254176;1103;115162;-68
2021/09/17 08:47:17;;;;;;;7.10;5.40;;;;;;;19.17;69.93;99320.91;255098;1104;115006;-68
2021/09/17 08:52:20;;;;;;;6.25;5.65;;;;;;;19.16;69.89;99322.80;254400;1103;115334;-68
2021/09/17 08:57:23;;;;;;;7.77;5.83;;;;;;;19.26;70.15;99312.90;255404;1097;116658;-70
2021/09/17 09:02:31;;;;;;;7.53;5.23;;;;;;;19.38;69.66;99310.46;254958;1103;115250;-69
2021/09/17 09:07:38;;;;;;;5.48;4.40;;;;;;;19.47;69.48;99312.16;254400;1103;116265;-69
2021/09/17 09:12:47;;;;;;;;;;;;;;;19.43;69.43;99315.77;254187;1103;114650;-70
2021/09/17 09:17:51;;;;;;;7.38;5.28;;;;;;;19.45;69.49;99308.16;254985;1102;103177;-70
2021/09/17 09:23:20;;;;;;;9.08;5.83;;;;;;;19.60;69.68;99309.73;255941;1103;115267;-70
2021/09/17 09:28:45;;;;;;;6.90;6.30;;;;;;;19.57;69.10;99315.78;254406;1104;115177;-69
2021/09/17 09:33:50;;;;;;;8.05;6.03;;;;;;;19.16;68.76;99317.40;256302;1104;117226;-70
2021/09/17 09:38:55;;;;;;;5.50;4.43;;;;;;;18.99;69.47;99321.79;255119;1104;115468;-69
2021/09/17 09:44:17;;;;;;;3.97;3.60;;;;;;;18.87;69.14;99318.80;257437;1103;115153;-70
2021/09/17 09:49:25;;;;;;;4.67;4.07;;;;;;;18.97;69.92;99313.98;257104;1104;115166;-70
2021/09/17 09:54:33;;;;;;;5.35;3.83;;;;;;;18.93;69.34;99310.31;257067;1103;115529;-69
2021/09/17 09:59:36;;;;;;;5.43;4.93;;;;;;;19.13;69.38;99307.19;257042;1103;115282;-69
2021/09/17 10:04:42;;;;;;;6.20;5.60;;;;;;;19.31;69.21;99305.46;254929;1101;120289;-69
2021/09/17 10:09:59;;;;;;;7.43;6.00;;;;;;;19.48;68.96;99316.46;255975;1097;116026;-68
2021/09/17 10:15:04;;;;;;;8.20;5.83;;;;;;;19.52;69.13;99307.78;255059;1103;115505;-69
2021/09/17 10:20:15;;;;;;;7.58;6.85;;;;;;;19.50;69.25;99313.45;254763;1096;115079;-68
2021/09/17 10:25:24;;;;;;;7.33;5.40;;;;;;;19.45;68.97;99311.66;255631;1103;114493;-68
2021/09/17 10:30:32;;;;;;;6.68;5.95;;;;;;;19.40;68.98;99308.26;255645;1103;114980;-68
2021/09/17 10:35:45;;;;;;;7.50;6.83;;;;;;;19.38;68.80;99316.67;254073;1102;115099;-68
2021/09/17 10:40:56;;;;;;;7.90;7.03;;;;;;;19.36;68.60;99312.66;254832;1104;117094;-68
2021/09/17 10:46:03;;;;;;;6.08;5.75;;;;;;;19.47;68.96;99309.45;254455;1104;115201;-68
2021/09/17 10:51:08;;;;;;;5.73;5.23;;;;;;;19.51;68.61;99309.68;254139;1104;114985;-69
2021/09/17 10:56:16;;;;;;;6.83;6.30;;;;;;;19.56;68.45;99308.77;254441;1096;115320;-69
2021/09/17 11:01:20;;;;;;;6.93;6.33;;;;;;;19.55;68.23;99307.17;254269;1102;114488;-69
2021/09/17 11:06:26;;;;;;;7.60;6.93;;;;;;;19.56;68.45;99308.77;254547;1103;117836;-68
2021/09/17 11:11:43;;;;;;;3.93;3.58;;;;;;;19.56;68.29;99308.77;255062;1103;115565;-69
2021/09/17 11:16:52;;;;;;;6.95;6.35;;;;;;;19.41;67.98;99309.86;255063;1096;116123;-69
2021/09/17 11:22:00;;;;;;;6.45;5.40;;;;;;;19.27;68.20;99301.76;254579;1102;115733;-69
2021/09/17 11:27:04;;;;;;;7.23;6.30;;;;;;;19.25;68.31;99306.70;256523;1103;115179;-69
2021/09/17 11:32:08;;;;;;;5.23;4.73;;;;;;;19.32;68.21;99312.47;255135;1102;117342;-70
2021/09/17 11:37:13;;;;;;;6.95;6.08;;;;;;;19.36;68.11;99296.45;255731;1097;116356;-69
2021/09/17 11:42:16;;;;;;;18.73;6.07;;;;;;;19.49;68.26;99288.33;256934;1103;116284;-69
2021/09/17 11:47:21;;;;;;;4.93;4.60;;;;;;;19.62;67.85;99286.70;257166;1104;117231;-70
2021/09/17 11:52:25;;;;;;;9.35;5.63;;;;;;;19.57;67.57;99286.81;257215;1103;115814;-69
2021/09/17 11:57:36;;;;;;;5.80;5.30;;;;;;;19.66;67.79;99274.17;257041;1102;114956;-69
2021/09/17 12:02:42;;;;;;;5.17;4.70;;;;;;;19.79;67.57;99277.95;257292;1103;115254;-69
2021/09/17 12:07:52;;;;;;;5.50;5.10;;;;;;;19.80;67.24;99277.64;255683;1104;115942;-69
2021/09/17 12:13:03;;;;;;;5.23;4.78;;;;;;;19.86;67.10;99270.22;254780;1102;116099;-68
2021/09/17 12:18:19;;;;;;;14.58;5.35;;;;;;;19.78;66.98;99268.23;255903;1104;116079;-68
2021/09/17 12:23:43;;;;;;;4.93;4.55;;;;;;;19.66;66.86;99276.08;255197;1103;115476;-69
2021/09/17 12:28:51;;;;;;;4.90;4.60;;;;;;;19.38;66.81;99286.94;254678;1104;116127;-69
2021/09/17 12:34:14;;;;;;;7.48;4.55;;;;;;;19.15;67.07;99288.78;254957;1104;115521;-69
2021/09/17 12:39:25;;;;;;;5.80;5.40;;;;;;;19.04;67.53;99287.38;254165;1096;115921;-69
2021/09/17 12:44:38;;;;;;;11.43;6.70;;;;;;;18.98;67.71;99280.47;254483;1103;115759;-69
2021/09/17 12:49:43;;;;;;;5.48;5.08;;;;;;;18.94;68.00;99284.10;255094;1096;115967;-70
2021/09/17 12:54:47;;;;;;;6.13;5.58;;;;;;;18.89;68.30;99282.30;254454;1104;115739;-69
2021/09/17 13:00:17;;;;;;;2.65;2.38;;;;;;;18.75;67.91;99278.78;254453;1096;115523;-69
2021/09/17 13:05:21;;;;;;;1.00;1.00;;;;;;;18.48;67.51;99283.02;254683;1103;114684;-70
2021/09/17 13:10:26;;;;;;;1.70;0.83;;;;;;;18.25;66.97;99285.88;254241;1102;118202;-71
2021/09/17 13:15:30;;;;;;;1.57;1.10;;;;;;;18.02;67.95;99285.72;254485;1102;116279;-70
2021/09/17 13:20:36;;;;;;;1.00;1.00;;;;;;;17.96;68.67;99286.89;255055;1104;114934;-70
2021/09/17 13:25:40;;;;;;;2.20;1.60;;;;;;;17.84;68.81;99281.14;254421;1102;115669;-69
2021/09/17 13:30:45;;;;;;;2.10;1.90;;;;;;;17.84;69.56;99281.94;256895;1102;114864;-70
2021/09/17 13:35:49;;;;;;;2.03;1.93;;;;;;;17.95;69.66;99277.20;255229;1103;115127;-70
2021/09/17 13:40:53;;;;;;;2.83;2.50;;;;;;;17.97;69.58;99284.99;254387;1104;116507;-69
2021/09/17 13:46:00;;;;;;;2.58;2.38;;;;;;;18.11;69.86;99280.43;256303;1104;115035;-70
2021/09/17 13:51:04;;;;;;;3.13;2.68;;;;;;;18.27;69.88;99279.09;257326;1103;116442;-69
2021/09/17 13:56:07;;;;;;;3.23;3.03;;;;;;;18.40;70.46;99278.30;257378;1103;115031;-70
2021/09/17 14:01:11;;;;;;;3.43;3.13;;;;;;;18.55;69.84;99273.74;255196;1103;115208;-69
2021/09/17 14:06:15;;;;;;;3.53;3.17;;;;;;;18.65;70.09;99265.49;255514;1103;115429;-69
2021/09/17 14:11:19;;;;;;;4.27;3.93;;;;;;;18.67;70.01;99261.37;255333;1103;115231;-70
2021/09/17 14:16:24;;;;;;;4.28;3.95;;;;;;;18.77;69.69;99260.38;255094;1096;114461;-70
2021/09/17 14:21:29;;;;;;;5.33;3.83;;;;;;;18.74;69.75;99263.68;254340;1102;115277;-68
2021/09/17 14:26:33;;;;;;;5.40;4.90;;;;;;;18.72;69.68;99263.98;255181;1104;115544;-69
2021/09/17 14:31:43;;;;;;;5.48;4.50;;;;;;;18.72;69.80;99260.47;255660;1103;115300;-70
2021/09/17 14:36:46;;;;;;;5.95;3.43;;;;;;;18.59;69.37;99253.95;255100;1104;115072;-69
2021/09/17 14:41:50;;;;;;;3.23;2.80;;;;;;;18.48;69.55;99258.73;254767;1103;114413;-70
2021/09/17 14:46:53;;;;;;;2.28;2.18;;;;;;;18.45;69.39;99263.92;254865;1103;115378;-70
2021/09/17 14:51:57;;;;;;;21.43;2.45;;;;;;;18.39;69.76;99254.31;254771;1104;116114;-70
2021/09/17 14:57:01;;;;;;;2.27;2.10;;;;;;;18.33;69.50;99259.03;254485;1102;115982;-69
2021/09/17 15:02:05;;;;;;;1.63;1.53;;;;;;;18.21;69.56;99260.59;255183;1104;114745;-69
2021/09/17 15:07:09;;;;;;;2.53;1.53;;;;;;;18.12;69.65;99260.45;254377;1104;115002;-69
2021/09/17 15:12:14;;;;;;;2.30;1.95;;;;;;;18.01;69.66;99256.34;255594;1103;115134;-69
2021/09/17 15:17:17;;;;;;;3.85;1.60;;;;;;;17.98;70.07;99254.23;255532;1104;115138;-70
2021/09/17 15:22:21;;;;;;;4.70;2.33;;;;;;;17.82;70.10;99262.55;254404;1102;115576;-69
2021/09/17 15:27:33;;;;;;;1.25;1.25;;;;;;;17.70;70.21;99254.14;255331;1104;116198;-68
2021/09/17 15:32:44;;;;;;;9.65;2.20;;;;;;;17.66;70.29;99250.42;255608;1102;115922;-69
2021/09/17 15:37:54;;;;;;;1.65;1.48;;;;;;;17.65;70.38;99259.59;255548;1103;115619;-69
2021/09/17 15:43:01;;;;;;;1.30;1.20;;;;;;;17.56;70.71;99263.20;255951;1104;115580;-69
2021/09/17 15:48:10;;;;;;;1.68;1.58;;;;;;;17.49;70.39;99258.17;255994;1104;115361;-69
2021/09/17 15:53:19;;;;;;;1.67;1.57;;;;;;;17.41;70.37;99266.94;256215;1102;115928;-69
2021/09/17 15:58:27;;;;;;;4.50;1.90;;;;;;;17.35;70.56;99266.20;257133;1104;117257;-69
2021/09/17 16:03:35;;;;;;;;;;;;;;;17.28;70.75;99270.33;256429;1103;116547;-69
2021/09/17 16:08:48;;;;;;;2.93;2.20;;;;;;;17.18;70.88;99279.34;256475;1102;103006;-70
2021/09/17 16:13:57;;;;;;;3.80;2.18;;;;;;;17.05;70.96;99274.67;255887;1104;115940;-68
2021/09/17 16:19:12;;;;;;;2.15;1.95;;;;;;;17.03;71.58;99277.66;255947;1104;115663;-69
2021/09/17 16:24:21;;;;;;;3.13;2.80;;;;;;;16.99;71.08;99273.93;255207;1102;116214;-69
2021/09/17 16:29:31;;;;;;;2.88;2.65;;;;;;;16.94;71.22;99268.60;254146;1103;115241;-69
2021/09/17 16:34:38;;;;;;;3.40;3.15;;;;;;;16.89;71.25;99260.58;255566;1102;114974;-69
2021/09/17 16:39:50;;;;;;;3.60;2.80;;;;;;;16.77;71.23;99257.52;254622;1097;115248;-70
2021/09/17 16:45:01;;;;;;;2.63;2.43;;;;;;;16.70;71.64;99254.35;255252;1103;115379;-69
2021/09/17 16:50:08;;;;;;;2.70;2.50;;;;;;;16.63;71.73;99267.31;254490;1104;114969;-69
2021/09/17 16:55:19;;;;;;;2.28;2.15;;;;;;;16.59;71.96;99268.97;255352;1103;115120;-69
2021/09/17 17:00:28;;;;;;;2.10;2.00;;;;;;;16.44;72.13;99262.67;254867;1104;115999;-67
2021/09/17 17:05:36;;;;;;;2.45;2.25;;;;;;;16.40;72.25;99264.32;254437;1104;117565;-69
2021/09/17 17:10:55;;;;;;;2.73;2.38;;;;;;;16.34;72.60;99259.27;255233;1103;116589;-69
2021/09/17 17:16:14;;;;;;;5.53;2.50;;;;;;;16.35;72.77;99261.67;255243;1104;118116;-69
2021/09/17 17:21:25;;;;;;;4.45;3.73;;;;;;;16.34;73.50;99264.65;254304;1096;115779;-69
2021/09/17 17:26:37;;;;;;;6.38;3.70;;;;;;;16.34;73.60;99264.65;255689;1096;116429;-68
2021/09/17 17:31:46;;;;;;;5.20;4.40;;;;;;;16.37;73.42;99270.27;255456;1103;115212;-69
2021/09/17 17:36:58;;;;;;;4.10;3.70;;;;;;;16.34;73.59;99276.20;255451;1104;115541;-69
2021/09/17 17:42:16;;;;;;;3.33;2.85;;;;;;;16.28;73.59;99277.34;254394;1103;115481;-70
2021/09/17 17:47:28;;;;;;;2.85;2.63;;;;;;;16.18;73.30;99277.45;255017;1102;115206;-69
2021/09/17 17:52:37;;;;;;;2.88;2.68;;;;;;;16.09;73.36;99279.13;256642;1103;115530;-69
2021/09/17 17:57:48;;;;;;;2.95;2.38;;;;;;;16.00;73.68;99292.37;256949;1103;115817;-70
2021/09/17 18:02:56;;;;;;;2.30;2.20;;;;;;;15.96;73.87;99290.52;257121;1103;115864;-69
2021/09/17 18:08:15;;;;;;;4.03;3.15;;;;;;;15.91;73.96;99293.23;256020;1104;116147;-69
2021/09/17 18:13:32;;;;;;;3.20;3.00;;;;;;;15.80;74.33;99301.39;256367;1102;114765;-68
2021/09/17 18:18:54;;;;;;;3.33;2.58;;;;;;;15.74;74.18;99299.81;254866;1104;114962;-69
2021/09/17 18:24:07;;;;;;;3.15;2.70;;;;;;;15.70;74.61;99304.14;255454;1104;115004;-68
2021/09/17 18:29:18;;;;;;;7.40;3.70;;;;;;;15.60;74.90;99298.81;255533;1101;115478;-68
2021/09/17 18:34:32;;;;;;;5.15;2.78;;;;;;;15.48;75.29;99317.94;255047;1103;115460;-68
2021/09/17 18:39:43;;;;;;;5.28;4.08;;;;;;;15.38;75.58;99319.87;255374;1103;115899;-69
2021/09/17 18:44:51;;;;;;;3.27;3.07;;;;;;;15.37;76.00;99315.58;255156;1097;115465;-69
2021/09/17 18:50:03;;;;;;;3.08;2.75;;;;;;;15.34;75.73;99314.24;254477;1103;115143;-68
2021/09/17 18:55:07;;;;;;;4.93;3.20;;;;;;;15.35;76.33;99313.16;254949;1103;115995;-69
2021/09/17 19:00:13;;;;;;;3.40;2.87;;;;;;;15.35;76.40;99320.41;254951;1104;115498;-69
2021/09/17 19:05:17;;;;;;;9.18;3.55;;;;;;;15.32;76.41;99323.65;254318;1096;115427;-69
2021/09/17 19:10:21;;;;;;;3.20;3.00;;;;;;;15.36;76.54;99317.45;254905;1104;115883;-69
2021/09/17 19:15:25;;;;;;;3.55;3.10;;;;;;;15.37;76.69;99323.63;255170;1104;116231;-69
2021/09/17 19:20:36;;;;;;;5.43;4.10;;;;;;;15.43;76.85;99314.48;255116;1103;115247;-69
2021/09/17 19:25:42;;;;;;;3.00;2.55;;;;;;;15.44;76.80;99316.89;254826;1104;116752;-69
2021/09/17 19:30:45;;;;;;;3.85;2.83;;;;;;;15.38;76.92;99323.36;254725;1096;117335;-68
2021/09/17 19:35:49;;;;;;;8.00;3.83;;;;;;;15.31;76.69;99322.84;254426;1099;116426;-69
2021/09/17 19:40:54;;;;;;;4.47;4.07;;;;;;;15.29;77.17;99313.45;255848;1104;115867;-69
2021/09/17 19:46:02;;;;;;;6.40;4.80;;;;;;;15.25;77.07;99325.85;255070;1102;116118;-68
2021/09/17 19:51:05;;;;;;;5.15;4.40;;;;;;;15.25;77.14;99320.48;256596;1103;115289;-70
2021/09/17 19:56:09;;;;;;;5.08;4.50;;;;;;;15.21;77.42;99316.73;257303;1103;115763;-68
2021/09/17 20:01:12;;;;;;;8.28;5.05;;;;;;;15.21;77.21;99317.54;257321;1102;117658;-69
2021/09/17 20:06:17;;;;;;;6.40;5.30;;;;;;;15.25;77.32;99318.60;257403;1103;115831;-69
2021/09/17 20:11:20;;;;;;;6.50;5.47;;;;;;;15.19;76.69;99314.33;257314;1102;116938;-69
2021/09/17 20:16:24;;;;;;;4.33;3.93;;;;;;;15.20;77.13;99315.13;256050;1104;115039;-69
2021/09/17 20:21:28;;;;;;;8.25;6.28;;;;;;;15.15;77.30;99310.58;255844;1096;114778;-67
2021/09/17 20:26:31;;;;;;;9.48;5.25;;;;;;;15.19;77.50;99324.27;256116;1103;115854;-67
2021/09/17 20:31:36;;;;;;;6.08;5.55;;;;;;;15.18;77.55;99315.41;255155;1104;116011;-67
2021/09/17 20:36:51;;;;;;;5.50;5.00;;;;;;;15.14;77.42;99317.83;255198;1104;115810;-68
2021/09/17 20:42:00;;;;;;;5.33;4.93;;;;;;;15.10;77.48;99311.40;255239;1096;115550;-68
2021/09/17 20:47:07;;;;;;;6.95;5.48;;;;;;;15.04;77.78;99312.48;254999;1102;115432;-69
2021/09/17 20:52:15;;;;;;;5.07;4.57;;;;;;;14.99;78.17;99315.19;254163;1097;174681;-69
2021/09/17 20:57:20;;;;;;;6.73;5.28;;;;;;;14.97;78.15;99314.69;254023;1094;114711;-69
2021/09/17 21:02:28;;;;;;;6.90;4.53;;;;;;;14.99;78.33;99309.81;254582;1104;114660;-70
2021/09/17 21:07:44;;;;;;;7.78;6.00;;;;;;;15.04;78.00;99306.31;253480;1104;114468;-69
2021/09/17 21:12:50;;;;;;;6.30;5.23;;;;;;;15.05;77.89;99307.92;254530;1104;115115;-68
2021/09/17 21:17:57;;;;;;;5.97;5.27;;;;;;;14.96;78.28;99313.08;253929;1104;114749;-68
2021/09/17 21:23:02;;;;;;;;;;;;;;;14.97;78.18;99308.52;254960;1104;115316;-69
2021/09/17 21:28:05;;;;;;;6.08;5.18;;;;;;;14.88;77.96;99310.14;257386;1104;190588;-69
2021/09/17 21:33:09;;;;;;;4.75;4.35;;;;;;;14.89;78.50;99304.50;256475;1100;115122;-69
2021/09/17 21:38:13;;;;;;;4.73;4.27;;;;;;;14.88;78.13;99312.83;255842;1104;114864;-68
2021/09/17 21:43:16;;;;;;;5.77;5.20;;;;;;;14.87;77.84;99300.48;254214;1104;114431;-69
2021/09/17 21:48:18;;;;;;;5.83;4.80;;;;;;;14.85;78.33;99300.76;255904;1104;114483;-69
2021/09/17 21:53:21;;;;;;;6.70;4.68;;;;;;;14.86;78.64;99299.68;257174;1104;114857;-69
2021/09/17 21:58:24;;;;;;;5.10;4.70;;;;;;;14.88;78.70;99296.73;256216;1104;115734;-69
2021/09/17 22:03:27;;;;;;;4.97;4.47;;;;;;;14.97;78.74;99298.58;257038;1104;114916;-68
2021/09/17 22:08:30;;;;;;;5.67;5.03;;;;;;;15.00;78.57;99298.00;257197;1104;114612;-69
2021/09/17 22:13:34;;;;;;;5.07;4.43;;;;;;;15.02;78.83;99295.85;257125;1104;115051;-69
2021/09/17 22:18:37;;;;;;;6.35;5.73;;;;;;;15.01;78.21;99296.92;254248;1104;115338;-69
2021/09/17 22:23:40;;;;;;;5.95;5.45;;;;;;;14.98;78.61;99289.42;255466;1104;115094;-69
2021/09/17 22:28:43;;;;;;;5.40;4.90;;;;;;;14.97;78.64;99295.09;256962;1104;115161;-68
2021/09/17 22:33:45;;;;;;;5.58;5.08;;;;;;;15.03;79.01;99294.77;253470;1104;115751;-67
2021/09/17 22:38:48;;;;;;;5.78;4.93;;;;;;;15.01;78.62;99277.34;256093;1104;114832;-67
2021/09/17 22:43:52;;;;;;;6.95;5.05;;;;;;;14.95;78.92;99283.83;254915;1104;114837;-68
2021/09/17 22:48:58;;;;;;;5.65;5.15;;;;;;;14.93;78.56;99285.98;255664;1104;114849;-71
2021/09/17 22:54:01;;;;;;;6.33;5.73;;;;;;;14.95;79.08;99276.58;256179;1104;115223;-70
2021/09/17 22:59:04;;;;;;;8.30;5.73;;;;;;;14.98;79.18;99270.63;254490;1104;115416;-71
2021/09/17 23:04:07;;;;;;;5.07;4.67;;;;;;;14.98;79.17;99284.05;253424;1104;115527;-72
2021/09/17 23:09:11;;;;;;;5.20;4.63;;;;;;;14.94;78.61;99279.53;254579;1104;115395;-70
2021/09/17 23:14:14;;;;;;;7.73;5.23;;;;;;;14.87;79.30;99285.19;254591;1104;115447;-73
2021/09/17 23:19:17;;;;;;;5.45;4.83;;;;;;;14.88;78.93;99276.06;253977;1104;115625;-72
2021/09/17 23:24:20;;;;;;;4.67;4.27;;;;;;;14.85;79.08;99276.60;253615;1100;115664;-72